Time;durP1;ratioP1;P1;durP2;ratioP2;P2;SDS_P1;SDS_P2;PMS_P1;PMS_P2;Temp;Humidity;BMP_temperature;BMP_pressure;BME280_temperature;BME280_humidity;BME280_pressure;Samples;Min_cycle;Max_cycle;Signal;HPM_P1;HPM_P2
2021/12/27 00:00:03;;;;;;;21.63;14.15;;;0.20;99.90;;;;;;5114567;28;20052;-78
2021/12/27 00:02:28;;;;;;;22.33;14.18;;;0.20;99.90;;;;;;5114295;27;20393;-79
2021/12/27 00:04:54;;;;;;;21.90;14.17;;;0.20;99.90;;;;;;5114337;28;20051;-78
2021/12/27 00:07:21;;;;;;;21.60;13.43;;;0.20;99.90;;;;;;5113994;28;20044;-79
2021/12/27 00:09:49;;;;;;;21.95;14.40;;;0.20;99.90;;;;;;5114074;28;20046;-78
2021/12/27 00:12:14;;;;;;;21.23;14.57;;;0.20;99.90;;;;;;5113473;28;20047;-78
2021/12/27 00:14:40;;;;;;;23.27;14.37;;;0.20;99.90;;;;;;5113032;28;20499;-79
2021/12/27 00:17:06;;;;;;;21.83;13.77;;;0.20;99.90;;;;;;5114061;28;20077;-78
2021/12/27 00:19:32;;;;;;;20.27;13.60;;;0.20;99.90;;;;;;5114127;28;20051;-75
2021/12/27 00:21:58;;;;;;;21.23;14.05;;;0.30;99.90;;;;;;5114031;28;20047;-78
2021/12/27 00:24:24;;;;;;;21.23;14.53;;;0.20;99.90;;;;;;5114238;28;20043;-78
2021/12/27 00:26:52;;;;;;;20.63;14.40;;;0.20;99.90;;;;;;5113654;27;20498;-78
2021/12/27 00:29:17;;;;;;;21.73;14.30;;;0.20;99.90;;;;;;5113979;28;20048;-78
2021/12/27 00:31:43;;;;;;;22.17;14.70;;;0.20;99.90;;;;;;5113940;28;20548;-77
2021/12/27 00:34:09;;;;;;;21.63;14.47;;;0.20;99.90;;;;;;5113799;28;20043;-78
2021/12/27 00:36:35;;;;;;;25.43;14.97;;;0.20;99.90;;;;;;5113378;28;20312;-77
2021/12/27 00:39:00;;;;;;;23.17;14.87;;;0.30;99.90;;;;;;5112794;28;20094;-78
2021/12/27 00:41:26;;;;;;;24.90;14.07;;;0.20;99.90;;;;;;5113819;28;20078;-78
2021/12/27 00:43:52;;;;;;;21.70;14.33;;;0.20;99.90;;;;;;5113557;28;20054;-78
2021/12/27 00:46:17;;;;;;;20.20;14.20;;;0.20;99.90;;;;;;5113222;28;20039;-78
2021/12/27 00:48:43;;;;;;;21.77;14.07;;;0.20;99.90;;;;;;5113216;28;20051;-77
2021/12/27 00:51:10;;;;;;;21.50;14.07;;;0.20;99.90;;;;;;5112322;28;20039;-77
2021/12/27 00:53:36;;;;;;;20.35;14.20;;;0.30;99.90;;;;;;5112297;28;20046;-75
2021/12/27 00:56:02;;;;;;;22.70;14.30;;;0.30;99.90;;;;;;5113486;28;20150;-78
2021/12/27 00:58:27;;;;;;;21.33;14.43;;;0.30;99.90;;;;;;5113651;28;20043;-79
2021/12/27 01:00:53;;;;;;;21.50;15.13;;;0.30;99.90;;;;;;5113193;28;20079;-78
2021/12/27 01:03:20;;;;;;;24.63;16.47;;;0.30;99.90;;;;;;5113395;28;20054;-78
2021/12/27 01:05:46;;;;;;;22.58;14.75;;;0.30;99.90;;;;;;5112729;28;20488;-78
2021/12/27 01:08:12;;;;;;;23.63;14.95;;;0.30;99.90;;;;;;5113398;28;20069;-78
2021/12/27 01:11:10;;;;;;;21.83;14.47;;;0.30;99.90;;;;;;5112806;28;20047;-75
2021/12/27 01:13:38;;;;;;;21.42;14.85;;;0.30;99.90;;;;;;5112710;28;20517;-78
2021/12/27 01:18:35;;;;;;;23.90;15.20;;;0.30;99.90;;;;;;5113359;28;20051;-77
2021/12/27 01:21:01;;;;;;;22.77;15.32;;;0.30;99.90;;;;;;5112787;28;20047;-77
2021/12/27 01:23:28;;;;;;;23.70;15.02;;;0.30;99.90;;;;;;5113094;28;20050;-77
2021/12/27 01:25:54;;;;;;;22.65;15.20;;;0.30;99.90;;;;;;5112981;28;20054;-77
2021/12/27 01:28:20;;;;;;;23.47;15.63;;;0.30;99.90;;;;;;5113119;28;20400;-78
2021/12/27 01:30:48;;;;;;;23.73;15.03;;;0.20;99.90;;;;;;5112780;28;20116;-77
2021/12/27 01:33:21;;;;;;;25.95;15.88;;;0.30;99.90;;;;;;5113049;28;20288;-77
2021/12/27 01:35:48;;;;;;;20.80;15.00;;;0.30;99.90;;;;;;5112839;28;20052;-78
2021/12/27 01:38:14;;;;;;;22.80;15.80;;;0.30;99.90;;;;;;5112973;28;20480;-78
2021/12/27 01:40:43;;;;;;;28.00;16.63;;;0.30;99.90;;;;;;5111807;28;20044;-78
2021/12/27 01:43:22;;;;;;;22.02;15.27;;;0.20;99.90;;;;;;5112948;28;20051;-79
2021/12/27 01:46:03;;;;;;;22.77;14.75;;;0.30;99.90;;;;;;5112436;28;20488;-77
2021/12/27 01:48:36;;;;;;;24.45;15.15;;;0.30;99.90;;;;;;5113315;28;20047;-77
2021/12/27 01:51:03;;;;;;;23.10;15.75;;;0.30;99.90;;;;;;5112532;28;20584;-77
2021/12/27 01:53:32;;;;;;;25.50;15.98;;;0.30;99.90;;;;;;5113034;28;20055;-77
2021/12/27 01:55:58;;;;;;;23.50;15.30;;;0.30;99.90;;;;;;5112507;28;20161;-78
2021/12/27 01:58:26;;;;;;;24.63;15.15;;;0.30;99.90;;;;;;5113387;28;20484;-78
2021/12/27 02:00:54;;;;;;;22.35;15.05;;;0.30;99.90;;;;;;5116468;28;20105;-78
2021/12/27 02:03:22;;;;;;;22.98;15.95;;;0.30;99.90;;;;;;5116988;27;20490;-78
2021/12/27 02:05:48;;;;;;;22.90;14.90;;;0.30;99.90;;;;;;5115051;28;20442;-79
2021/12/27 02:08:14;;;;;;;21.47;15.20;;;0.30;99.90;;;;;;5115812;28;20048;-78
2021/12/27 02:10:41;;;;;;;22.03;15.43;;;0.30;99.90;;;;;;5116991;28;20047;-78
2021/12/27 02:13:07;;;;;;;24.08;15.73;;;0.30;99.90;;;;;;5080823;28;20066;-77
2021/12/27 02:15:32;;;;;;;23.10;15.40;;;0.30;99.90;;;;;;5116816;28;20039;-77
2021/12/27 02:17:58;;;;;;;25.07;15.57;;;0.30;99.90;;;;;;5115697;28;20108;-77
2021/12/27 02:20:33;;;;;;;24.65;15.05;;;0.30;99.90;;;;;;5116444;28;20050;-77
2021/12/27 02:23:02;;;;;;;23.83;16.05;;;0.30;99.90;;;;;;5116152;28;20101;-77
2021/12/27 02:25:30;;;;;;;23.10;16.30;;;0.30;99.90;;;;;;5116287;28;20055;-77
2021/12/27 02:27:57;;;;;;;23.10;15.65;;;0.30;99.90;;;;;;5114837;28;20051;-77
2021/12/27 02:30:23;;;;;;;23.38;16.80;;;0.30;99.90;;;;;;5116348;28;20392;-77
2021/12/27 02:33:00;;;;;;;23.67;15.88;;;0.30;99.90;;;;;;5115938;28;20051;-77
2021/12/27 02:35:33;;;;;;;23.45;15.45;;;0.40;99.90;;;;;;5116239;27;20047;-77
2021/12/27 02:38:00;;;;;;;22.77;15.23;;;0.40;99.90;;;;;;5115660;28;20084;-77
2021/12/27 02:40:29;;;;;;;25.08;16.77;;;0.40;99.90;;;;;;5115940;28;20043;-77
2021/12/27 02:43:00;;;;;;;23.35;16.30;;;0.30;99.90;;;;;;5115663;28;20479;-77
2021/12/27 02:45:29;;;;;;;23.25;16.58;;;0.40;99.90;;;;;;5116169;28;20048;-77
2021/12/27 02:47:55;;;;;;;21.23;15.10;;;0.40;99.90;;;;;;5115605;28;20039;-77
2021/12/27 02:50:22;;;;;;;24.58;15.82;;;0.40;99.90;;;;;;5116021;28;20058;-77
2021/12/27 02:52:48;;;;;;;24.10;15.38;;;0.40;99.90;;;;;;5115771;28;20043;-77
2021/12/27 02:55:15;;;;;;;23.90;16.87;;;0.40;99.90;;;;;;5115576;28;20061;-77
2021/12/27 02:57:48;;;;;;;25.27;16.70;;;0.40;99.90;;;;;;5115735;28;20300;-77
2021/12/27 03:00:18;;;;;;;25.08;15.73;;;0.40;99.90;;;;;;5115242;28;20049;-77
2021/12/27 03:02:46;;;;;;;26.38;16.88;;;0.40;99.90;;;;;;5115623;28;20487;-77
2021/12/27 03:05:16;;;;;;;23.70;15.95;;;0.50;99.90;;;;;;5115276;28;20157;-77
2021/12/27 03:07:43;;;;;;;23.55;15.73;;;0.40;99.90;;;;;;5115834;28;20039;-77
2021/12/27 03:10:11;;;;;;;23.52;16.58;;;0.40;99.90;;;;;;5114875;28;20126;-77
2021/12/27 03:12:38;;;;;;;21.98;15.70;;;0.40;99.90;;;;;;5115506;28;20391;-78
2021/12/27 03:15:08;;;;;;;27.42;17.35;;;0.50;99.90;;;;;;5115205;28;20043;-77
2021/12/27 03:17:36;;;;;;;26.70;17.70;;;0.40;99.90;;;;;;5115279;28;20117;-78
2021/12/27 03:20:04;;;;;;;27.05;16.98;;;0.50;99.90;;;;;;5115218;28;20056;-77
2021/12/27 03:22:30;;;;;;;25.98;16.67;;;0.40;99.90;;;;;;5115691;28;20044;-77
2021/12/27 03:24:56;;;;;;;24.25;16.58;;;0.40;99.90;;;;;;5114910;28;20039;-77
2021/12/27 03:27:21;;;;;;;26.53;17.07;;;0.40;99.90;;;;;;5097227;28;20048;-77
2021/12/27 03:29:47;;;;;;;24.97;16.33;;;0.40;99.90;;;;;;5114130;28;20051;-77
2021/12/27 03:32:14;;;;;;;24.60;17.13;;;0.50;99.90;;;;;;5114418;28;20422;-77
2021/12/27 03:34:52;;;;;;;26.60;17.55;;;0.50;99.90;;;;;;5115023;28;20052;-78
2021/12/27 03:37:18;;;;;;;23.05;16.42;;;0.50;99.90;;;;;;5114303;27;20373;-77
2021/12/27 03:39:43;;;;;;;24.10;16.23;;;0.50;99.90;;;;;;5114873;28;20051;-77
2021/12/27 03:42:09;;;;;;;24.47;16.63;;;0.50;99.90;;;;;;5113785;28;20050;-78
2021/12/27 03:44:35;;;;;;;27.27;17.27;;;0.50;99.90;;;;;;5114933;28;20043;-77
2021/12/27 03:47:01;;;;;;;26.40;17.07;;;0.50;99.90;;;;;;5113341;28;20137;-77
2021/12/27 03:49:26;;;;;;;25.43;17.07;;;0.50;99.90;;;;;;5114779;28;20177;-77
2021/12/27 03:51:52;;;;;;;26.37;16.80;;;0.60;99.90;;;;;;5114613;28;20100;-77
2021/12/27 03:54:17;;;;;;;24.67;17.50;;;0.90;99.90;;;;;;5114360;28;20058;-77
2021/12/27 03:56:43;;;;;;;26.53;18.00;;;0.70;99.90;;;;;;5113671;28;20179;-76
2021/12/27 03:59:24;;;;;;;26.33;17.27;;;0.60;99.90;;;;;;5113086;28;20048;-76
2021/12/27 04:01:50;;;;;;;25.38;16.98;;;0.70;99.90;;;;;;5114954;28;20453;-76
2021/12/27 04:04:16;;;;;;;26.77;17.17;;;0.70;99.90;;;;;;5114216;28;20039;-76
2021/12/27 04:06:42;;;;;;;28.02;19.20;;;0.60;99.90;;;;;;5114154;28;20500;-77
2021/12/27 04:09:08;;;;;;;27.17;18.53;;;0.60;99.90;;;;;;5114070;27;20050;-77
2021/12/27 04:11:33;;;;;;;27.87;19.27;;;0.60;99.90;;;;;;5114051;28;20058;-76
2021/12/27 04:14:02;;;;;;;27.33;18.97;;;0.60;99.90;;;;;;5096053;28;20058;-75
2021/12/27 04:16:28;;;;;;;28.83;18.80;;;0.70;99.90;;;;;;5113716;28;20059;-76
2021/12/27 04:18:55;;;;;;;28.83;18.92;;;0.90;99.90;;;;;;5114443;28;20431;-77
2021/12/27 04:21:21;;;;;;;26.50;18.73;;;0.60;99.90;;;;;;5113030;28;20051;-76
2021/12/27 04:23:46;;;;;;;28.20;19.43;;;0.80;99.90;;;;;;5095952;28;20052;-76
2021/12/27 04:26:12;;;;;;;29.40;18.83;;;0.60;99.90;;;;;;5113845;28;20044;-76
2021/12/27 04:28:38;;;;;;;34.87;19.67;;;0.50;99.90;;;;;;5112956;28;20052;-76
2021/12/27 04:31:03;;;;;;;30.20;19.63;;;0.60;99.90;;;;;;5113589;28;20143;-76
2021/12/27 04:33:29;;;;;;;32.47;21.87;;;0.50;99.90;;;;;;5113920;28;20069;-76
2021/12/27 04:35:55;;;;;;;31.67;20.83;;;0.50;99.90;;;;;;5113711;27;20040;-76
2021/12/27 04:38:21;;;;;;;34.13;20.97;;;0.60;99.90;;;;;;5113623;28;20073;-76
2021/12/27 04:40:49;;;;;;;30.00;21.47;;;1.00;99.90;;;;;;5113435;28;20039;-76
2021/12/27 04:43:21;;;;;;;30.85;21.15;;;0.60;99.90;;;;;;5113414;28;20116;-76
2021/12/27 04:45:49;;;;;;;30.40;20.38;;;0.50;99.90;;;;;;5112660;28;20379;-76
2021/12/27 04:48:16;;;;;;;31.85;21.67;;;0.50;99.90;;;;;;5113357;28;20446;-76
2021/12/27 04:50:42;;;;;;;35.90;22.45;;;0.70;99.90;;;;;;5113815;28;20444;-76
2021/12/27 04:53:07;;;;;;;32.33;21.70;;;0.70;99.90;;;;;;5113275;28;20134;-76
2021/12/27 04:55:37;;;;;;;33.47;22.13;;;0.50;99.90;;;;;;5113465;28;20094;-76
2021/12/27 04:58:04;;;;;;;34.08;21.95;;;0.50;99.90;;;;;;5112199;28;20472;-76
2021/12/27 05:00:30;;;;;;;35.22;22.77;;;0.50;99.90;;;;;;5113654;28;20047;-76
2021/12/27 05:02:58;;;;;;;32.47;21.25;;;0.50;99.90;;;;;;5113551;28;20403;-76
2021/12/27 05:05:25;;;;;;;33.90;22.65;;;1.00;99.90;;;;;;5113314;28;20054;-76
2021/12/27 05:07:51;;;;;;;31.55;22.08;;;0.50;99.90;;;;;;5113330;28;20054;-76
2021/12/27 05:10:17;;;;;;;32.97;22.73;;;0.50;99.90;;;;;;5095133;28;20047;-76
2021/12/27 05:12:44;;;;;;;32.93;22.30;;;0.60;99.90;;;;;;5112093;28;20070;-76
2021/12/27 05:15:10;;;;;;;33.53;22.45;;;0.70;99.90;;;;;;5112933;28;20085;-76
2021/12/27 05:17:36;;;;;;;34.45;21.67;;;0.50;99.90;;;;;;5113046;28;20052;-76
2021/12/27 05:20:08;;;;;;;35.00;23.33;;;0.60;99.90;;;;;;5112503;28;20036;-76
2021/12/27 05:22:34;;;;;;;34.00;22.13;;;0.50;99.90;;;;;;5113312;28;20036;-76
2021/12/27 05:25:00;;;;;;;41.00;24.23;;;0.70;99.90;;;;;;5113192;28;20387;-76
2021/12/27 05:27:26;;;;;;;33.20;22.08;;;0.40;99.90;;;;;;5111798;28;20495;-76
2021/12/27 05:29:52;;;;;;;30.73;21.00;;;0.50;99.90;;;;;;5113200;28;20039;-76
2021/12/27 05:32:18;;;;;;;30.63;21.57;;;1.00;99.90;;;;;;5113182;28;20156;-76
2021/12/27 05:34:43;;;;;;;31.80;21.07;;;0.90;99.90;;;;;;5116187;28;20050;-76
2021/12/27 05:37:10;;;;;;;31.50;21.43;;;0.50;99.90;;;;;;5116811;27;20197;-75
2021/12/27 05:39:36;;;;;;;33.38;21.95;;;0.70;99.90;;;;;;5117465;28;20086;-76
2021/12/27 05:42:02;;;;;;;31.63;21.30;;;0.60;99.90;;;;;;5117172;28;20135;-76
2021/12/27 05:44:28;;;;;;;32.03;21.73;;;0.70;99.90;;;;;;5116908;28;20411;-76
2021/12/27 05:46:54;;;;;;;31.30;19.87;;;0.80;99.90;;;;;;5117102;28;20035;-76
2021/12/27 05:49:21;;;;;;;34.83;22.60;;;0.60;99.90;;;;;;5116712;27;20047;-76
2021/12/27 05:51:47;;;;;;;34.53;21.00;;;0.70;99.90;;;;;;5115932;28;20502;-76
2021/12/27 05:54:13;;;;;;;32.03;21.20;;;0.60;99.90;;;;;;5116559;28;20047;-76
2021/12/27 05:56:40;;;;;;;35.45;22.15;;;0.70;99.90;;;;;;5116464;28;20047;-76
2021/12/27 05:59:06;;;;;;;34.40;21.65;;;0.90;99.90;;;;;;5115894;28;20043;-76
2021/12/27 06:01:32;;;;;;;34.13;23.13;;;0.80;99.90;;;;;;5116548;27;20135;-76
2021/12/27 06:03:59;;;;;;;36.33;23.60;;;0.60;99.90;;;;;;5116824;27;20097;-76
2021/12/27 06:06:26;;;;;;;35.10;22.48;;;0.60;99.90;;;;;;5115454;28;20380;-75
2021/12/27 06:08:52;;;;;;;36.08;21.80;;;0.70;99.90;;;;;;5116864;28;20058;-76
2021/12/27 06:11:18;;;;;;;35.38;22.80;;;0.80;99.90;;;;;;5116248;28;20120;-75
2021/12/27 06:13:44;;;;;;;41.00;23.67;;;0.70;99.90;;;;;;5116665;28;20048;-75
2021/12/27 06:16:10;;;;;;;37.13;22.40;;;1.00;99.90;;;;;;5116967;28;20050;-75
2021/12/27 06:18:36;;;;;;;36.17;22.25;;;0.70;99.90;;;;;;5116035;28;20082;-75
2021/12/27 06:21:04;;;;;;;38.15;24.52;;;0.90;99.90;;;;;;5114914;28;20543;-76
2021/12/27 06:23:31;;;;;;;37.03;22.58;;;0.70;99.90;;;;;;5116015;28;20139;-75
2021/12/27 06:25:57;;;;;;;42.13;23.65;;;0.70;99.90;;;;;;5116502;28;20433;-76
2021/12/27 06:28:23;;;;;;;38.50;23.23;;;0.80;99.90;;;;;;5114958;28;20165;-76
2021/12/27 06:30:48;;;;;;;45.53;24.50;;;1.00;99.90;;;;;;5116826;28;20052;-76
2021/12/27 06:33:15;;;;;;;37.70;22.30;;;0.70;99.90;;;;;;5116221;28;20560;-76
2021/12/27 06:35:41;;;;;;;45.70;23.77;;;0.70;99.90;;;;;;5116231;28;20105;-75
2021/12/27 06:38:06;;;;;;;42.97;23.50;;;0.70;99.90;;;;;;5116049;28;20471;-75
2021/12/27 06:40:33;;;;;;;41.77;22.67;;;0.90;99.90;;;;;;5114580;28;20043;-75
2021/12/27 06:42:59;;;;;;;39.08;23.63;;;0.80;99.90;;;;;;5115987;28;20100;-74
2021/12/27 06:45:25;;;;;;;46.10;24.48;;;0.80;99.90;;;;;;5114873;28;20047;-75
2021/12/27 06:47:51;;;;;;;45.75;24.83;;;0.80;99.90;;;;;;5115961;28;20488;-75
2021/12/27 06:50:17;;;;;;;42.97;24.13;;;0.80;99.90;;;;;;5115984;27;20131;-75
2021/12/27 06:52:43;;;;;;;43.67;24.43;;;0.90;99.90;;;;;;5115977;28;20100;-75
2021/12/27 06:55:10;;;;;;;48.95;25.48;;;0.80;99.90;;;;;;5115782;28;20050;-75
2021/12/27 06:57:36;;;;;;;47.47;25.17;;;1.00;99.90;;;;;;5115409;28;20048;-74
2021/12/27 07:00:07;;;;;;;47.65;25.02;;;0.80;99.90;;;;;;5115822;28;20157;-75
2021/12/27 07:02:33;;;;;;;53.90;26.88;;;0.80;99.90;;;;;;5115368;27;20054;-75
2021/12/27 07:04:59;;;;;;;52.73;26.17;;;0.80;99.90;;;;;;5115554;28;20036;-75
2021/12/27 07:07:24;;;;;;;48.73;26.30;;;0.80;99.90;;;;;;5115272;28;20036;-74
2021/12/27 07:09:51;;;;;;;51.50;28.23;;;0.80;99.90;;;;;;5115542;28;20043;-74
2021/12/27 07:12:17;;;;;;;57.15;29.17;;;0.80;99.90;;;;;;5115495;28;20108;-74
2021/12/27 07:14:43;;;;;;;58.58;29.20;;;0.80;99.90;;;;;;5113908;28;20043;-75
2021/12/27 07:17:09;;;;;;;55.00;27.50;;;0.90;99.90;;;;;;5114230;28;20449;-74
2021/12/27 07:19:35;;;;;;;53.83;27.95;;;0.80;99.90;;;;;;5115034;28;20107;-74
2021/12/27 07:22:01;;;;;;;53.73;28.80;;;0.80;99.90;;;;;;5115342;27;20124;-74
2021/12/27 07:24:27;;;;;;;60.10;28.63;;;0.80;99.90;;;;;;5114913;28;20051;-74
2021/12/27 07:26:52;;;;;;;59.83;28.00;;;0.80;99.90;;;;;;5115207;28;20036;-74
2021/12/27 07:29:19;;;;;;;59.27;28.73;;;0.80;99.90;;;;;;5115201;28;20047;-74
2021/12/27 07:31:45;;;;;;;55.78;29.02;;;0.90;99.90;;;;;;5113647;28;20055;-74
2021/12/27 07:34:13;;;;;;;61.17;28.63;;;0.90;99.90;;;;;;5115091;28;20044;-74
2021/12/27 07:36:39;;;;;;;60.08;28.42;;;0.90;99.90;;;;;;5114634;28;20131;-74
2021/12/27 07:39:06;;;;;;;66.85;29.65;;;0.90;99.90;;;;;;5115007;28;20039;-74
2021/12/27 07:41:32;;;;;;;66.07;30.58;;;0.90;99.90;;;;;;5113685;28;20047;-74
2021/12/27 07:43:58;;;;;;;67.43;30.70;;;0.90;99.90;;;;;;5114556;28;20058;-74
2021/12/27 07:46:24;;;;;;;65.03;30.17;;;0.90;99.90;;;;;;5114885;27;20054;-74
2021/12/27 07:48:51;;;;;;;77.43;33.28;;;0.90;99.90;;;;;;5114814;28;20043;-74
2021/12/27 07:51:16;;;;;;;77.55;31.73;;;0.90;99.90;;;;;;5114757;28;20425;-73
2021/12/27 07:53:42;;;;;;;80.83;32.37;;;0.90;99.90;;;;;;5114399;28;20142;-74
2021/12/27 07:56:09;;;;;;;66.27;29.27;;;0.90;99.90;;;;;;5113519;28;20061;-74
2021/12/27 07:58:35;;;;;;;83.85;32.63;;;1.00;99.90;;;;;;5114283;28;20090;-74
2021/12/27 08:01:01;;;;;;;81.45;32.90;;;1.00;99.90;;;;;;5113474;28;20047;-74
2021/12/27 08:03:27;;;;;;;85.63;34.83;;;1.00;99.90;;;;;;5114175;28;20116;-74
2021/12/27 08:05:53;;;;;;;97.20;34.60;;;1.00;99.90;;;;;;5114492;28;20057;-74
2021/12/27 08:08:18;;;;;;;95.17;35.40;;;1.00;99.90;;;;;;5114361;28;20044;-74
2021/12/27 08:10:45;;;;;;;94.47;34.93;;;1.00;99.90;;;;;;5113021;28;20281;-74
2021/12/27 08:13:11;;;;;;;103.40;35.75;;;1.00;99.90;;;;;;5114246;28;20044;-74
2021/12/27 08:15:36;;;;;;;91.27;33.60;;;1.00;99.90;;;;;;5113915;28;20043;-74
2021/12/27 08:18:02;;;;;;;106.03;36.10;;;1.00;99.90;;;;;;5113828;28;20056;-74
2021/12/27 08:20:28;;;;;;;93.18;33.25;;;1.00;99.90;;;;;;5114055;28;20385;-73
2021/12/27 08:22:54;;;;;;;91.60;33.53;;;1.20;99.90;;;;;;5114023;28;20047;-73
2021/12/27 08:25:20;;;;;;;95.43;36.63;;;1.00;99.90;;;;;;5113955;28;20051;-73
2021/12/27 08:27:46;;;;;;;86.28;34.65;;;1.10;99.90;;;;;;5112316;28;20132;-74
2021/12/27 08:30:13;;;;;;;99.35;35.00;;;1.10;99.90;;;;;;5113779;28;20063;-74
2021/12/27 08:32:42;;;;;;;102.45;34.90;;;1.40;99.90;;;;;;5113620;28;20514;-73
2021/12/27 08:35:09;;;;;;;100.07;35.80;;;1.30;99.90;;;;;;5113532;28;20050;-73
2021/12/27 08:37:37;;;;;;;104.97;36.35;;;1.30;99.90;;;;;;5113216;28;20051;-73
2021/12/27 08:40:05;;;;;;;103.85;36.35;;;1.10;99.90;;;;;;5113852;28;20479;-73
2021/12/27 08:42:30;;;;;;;102.72;36.78;;;1.20;99.90;;;;;;5113695;28;20069;-73
2021/12/27 08:44:56;;;;;;;105.97;35.53;;;1.20;99.90;;;;;;5113719;28;20052;-73
2021/12/27 08:47:22;;;;;;;102.10;37.30;;;1.20;99.90;;;;;;5113672;28;20484;-74
2021/12/27 08:49:47;;;;;;;92.20;33.97;;;1.10;99.90;;;;;;5112115;28;20086;-73
2021/12/27 08:52:13;;;;;;;117.50;39.03;;;1.20;99.90;;;;;;5113645;28;20106;-73
2021/12/27 08:54:39;;;;;;;105.40;37.93;;;1.20;99.90;;;;;;5113284;28;20529;-74
2021/12/27 08:57:09;;;;;;;100.10;36.35;;;1.20;99.90;;;;;;5113522;28;20123;-73
2021/12/27 08:59:37;;;;;;;99.90;36.65;;;1.20;99.90;;;;;;5113148;28;20043;-73
2021/12/27 09:02:04;;;;;;;103.72;37.03;;;1.30;99.90;;;;;;5113562;28;20120;-73
2021/12/27 09:04:30;;;;;;;101.38;35.53;;;1.30;99.90;;;;;;5112257;28;20044;-76
2021/12/27 09:06:56;;;;;;;104.33;34.10;;;1.30;99.90;;;;;;5111714;28;20039;-76
2021/12/27 09:09:21;;;;;;;110.77;38.37;;;1.30;99.90;;;;;;5113231;28;20101;-77
2021/12/27 09:11:47;;;;;;;104.03;38.73;;;1.30;99.90;;;;;;5113088;28;20050;-75
2021/12/27 09:14:14;;;;;;;106.93;34.97;;;1.40;99.90;;;;;;5113357;28;20036;-76
2021/12/27 09:16:40;;;;;;;98.20;35.85;;;1.40;99.90;;;;;;5112627;28;20040;-76
2021/12/27 09:19:07;;;;;;;105.57;35.88;;;1.40;99.90;;;;;;5112773;28;20097;-75
2021/12/27 09:21:33;;;;;;;87.23;35.47;;;1.40;99.90;;;;;;5113172;28;20045;-75
2021/12/27 09:23:59;;;;;;;85.55;32.50;;;1.50;99.90;;;;;;5112857;28;20321;-75
2021/12/27 09:26:24;;;;;;;82.80;30.80;;;1.40;99.90;;;;;;5113209;28;20079;-75
2021/12/27 09:28:50;;;;;;;81.83;33.03;;;1.50;99.90;;;;;;5112893;28;20447;-75
2021/12/27 09:31:16;;;;;;;80.60;32.90;;;1.50;99.90;;;;;;5113131;28;20039;-75
2021/12/27 09:33:42;;;;;;;83.53;31.60;;;1.50;99.90;;;;;;5112603;28;20048;-75
2021/12/27 09:36:08;;;;;;;85.60;32.90;;;1.50;99.90;;;;;;5111814;28;20231;-75
2021/12/27 09:38:34;;;;;;;84.88;32.88;;;1.50;99.90;;;;;;5113230;28;20127;-75
2021/12/27 09:40:59;;;;;;;78.40;31.53;;;1.50;99.90;;;;;;5113150;28;20542;-76
2021/12/27 09:43:26;;;;;;;81.30;30.67;;;1.60;99.90;;;;;;5112794;28;20491;-76
2021/12/27 09:45:52;;;;;;;73.35;30.73;;;1.50;99.90;;;;;;5112902;28;20047;-75
2021/12/27 09:48:18;;;;;;;91.20;33.15;;;1.50;99.90;;;;;;5095018;28;20040;-77
2021/12/27 09:50:51;;;;;;;83.93;31.00;;;1.50;99.90;;;;;;5111495;28;20118;-76
2021/12/27 09:53:17;;;;;;;86.55;32.95;;;1.50;99.90;;;;;;5113110;28;20135;-75
2021/12/27 09:55:43;;;;;;;79.97;30.37;;;1.50;99.90;;;;;;5111728;28;20126;-75
2021/12/27 09:58:08;;;;;;;75.23;31.10;;;1.60;99.90;;;;;;5111603;28;20044;-74
2021/12/27 10:00:36;;;;;;;94.43;32.67;;;1.60;99.90;;;;;;5111930;28;20095;-76
2021/12/27 10:03:02;;;;;;;82.78;31.48;;;1.60;99.90;;;;;;5112719;28;20058;-75
2021/12/27 10:05:30;;;;;;;85.10;31.75;;;1.60;99.90;;;;;;5112885;28;20051;-76
2021/12/27 10:07:57;;;;;;;90.75;33.25;;;1.60;99.90;;;;;;5112772;28;20051;-74
2021/12/27 10:10:23;;;;;;;94.03;33.88;;;1.60;99.90;;;;;;5112826;28;20051;-75
2021/12/27 10:12:49;;;;;;;91.22;32.75;;;1.60;99.90;;;;;;5112500;28;20048;-75
2021/12/27 10:15:18;;;;;;;88.22;33.85;;;1.60;99.90;;;;;;5112619;28;20043;-76
2021/12/27 10:17:45;;;;;;;83.03;31.67;;;1.70;99.90;;;;;;5112099;28;20043;-75
2021/12/27 10:20:16;;;;;;;99.72;33.75;;;1.70;99.90;;;;;;5114414;28;20048;-75
2021/12/27 10:22:44;;;;;;;101.90;33.83;;;1.70;99.90;;;;;;5116242;28;20487;-74
2021/12/27 10:25:19;;;;;;;107.70;34.55;;;1.70;99.90;;;;;;5114674;28;20075;-77
2021/12/27 10:27:47;;;;;;;116.40;33.70;;;1.80;99.90;;;;;;5095616;28;20080;-79
2021/12/27 10:30:18;;;;;;;93.80;32.00;;;1.70;99.90;;;;;;5095945;28;20047;-76
2021/12/27 10:33:00;;;;;;;97.00;33.53;;;1.80;99.90;;;;;;5095706;28;20048;-78
2021/12/27 10:35:37;;;;;;;135.70;38.67;;;1.80;99.90;;;;;;5096095;28;20093;-75
2021/12/27 10:38:24;;;;;;;132.70;36.85;;;1.80;99.90;;;;;;5095514;28;20032;-77
2021/12/27 10:41:00;;;;;;;127.50;35.60;;;1.80;99.90;;;;;;5094574;28;20044;-77
2021/12/27 10:43:44;;;;;;;140.45;36.90;;;1.80;99.90;;;;;;5096060;28;20036;-77
2021/12/27 10:46:14;;;;;;;126.30;36.25;;;1.90;99.90;;;;;;5095529;28;20040;-75
2021/12/27 10:48:46;;;;;;;120.68;37.90;;;1.90;99.90;;;;;;5095575;28;20050;-74
2021/12/27 10:51:12;;;;;;;139.40;38.28;;;1.90;99.90;;;;;;5095410;28;20052;-75
2021/12/27 10:53:48;;;;;;;118.95;37.20;;;1.90;99.90;;;;;;5095165;28;20496;-73
2021/12/27 10:56:15;;;;;;;158.68;37.00;;;2.00;99.90;;;;;;5095392;28;20052;-75
2021/12/27 10:58:53;;;;;;;121.43;36.55;;;2.00;99.90;;;;;;5095390;28;20051;-76
2021/12/27 11:01:20;;;;;;;128.23;38.10;;;2.10;99.90;;;;;;5095570;28;20424;-77
2021/12/27 11:03:51;;;;;;;125.03;36.20;;;2.10;99.90;;;;;;5095318;28;20047;-80
2021/12/27 11:06:24;;;;;;;139.43;38.55;;;2.20;99.90;;;;;;5095285;28;20051;-75
2021/12/27 11:08:52;;;;;;;103.40;34.92;;;2.20;99.90;;;;;;5094010;28;20101;-73
2021/12/27 11:11:19;;;;;;;114.45;36.58;;;2.20;99.90;;;;;;5095137;28;20044;-75
2021/12/27 11:13:48;;;;;;;121.10;37.00;;;2.20;99.90;;;;;;5094950;28;20079;-77
2021/12/27 11:16:14;;;;;;;107.80;36.58;;;2.30;99.90;;;;;;5094831;28;20040;-76
2021/12/27 11:18:40;;;;;;;136.43;36.83;;;2.30;99.90;;;;;;5093764;28;20067;-76
2021/12/27 11:21:12;;;;;;;118.83;37.60;;;2.30;99.90;;;;;;5094594;28;20381;-76
2021/12/27 11:23:41;;;;;;;130.70;38.35;;;2.40;99.90;;;;;;5076931;28;20052;-72
2021/12/27 11:26:12;;;;;;;107.70;36.33;;;2.30;99.90;;;;;;5094553;28;20079;-71
2021/12/27 11:28:40;;;;;;;127.30;36.40;;;2.40;99.90;;;;;;5095017;28;20044;-72
2021/12/27 11:31:16;;;;;;;123.45;37.53;;;2.40;99.90;;;;;;5094229;28;20051;-72
2021/12/27 11:34:00;;;;;;;106.18;34.85;;;2.40;99.90;;;;;;5094833;28;20083;-71
2021/12/27 11:36:29;;;;;;;119.63;35.95;;;2.50;99.90;;;;;;5094692;28;20046;-71
2021/12/27 11:38:56;;;;;;;113.25;37.38;;;2.50;99.90;;;;;;5094011;28;20040;-72
2021/12/27 11:41:31;;;;;;;111.22;35.50;;;2.50;99.90;;;;;;5093608;28;20127;-72
2021/12/27 11:43:58;;;;;;;117.50;35.15;;;2.50;99.90;;;;;;5094185;28;20048;-73
2021/12/27 11:46:27;;;;;;;104.50;36.28;;;2.50;99.90;;;;;;5093488;28;20110;-73
2021/12/27 11:48:57;;;;;;;109.40;36.42;;;2.60;99.90;;;;;;5094239;28;20511;-73
2021/12/27 11:51:39;;;;;;;114.22;36.05;;;2.60;99.90;;;;;;5093432;28;20135;-73
2021/12/27 11:54:35;;;;;;;117.55;36.80;;;2.60;99.90;;;;;;5094211;28;20055;-73
2021/12/27 11:57:01;;;;;;;119.13;34.20;;;2.70;99.90;;;;;;5088626;28;20510;-73
2021/12/27 11:59:35;;;;;;;108.03;35.90;;;2.70;99.90;;;;;;5094044;28;20044;-73
2021/12/27 12:02:24;;;;;;;110.03;35.25;;;2.70;99.90;;;;;;5094193;28;20425;-74
2021/12/27 12:04:52;;;;;;;128.00;36.22;;;2.70;99.90;;;;;;5090280;28;20064;-75
2021/12/27 12:07:33;;;;;;;132.25;35.85;;;2.80;99.90;;;;;;5093723;28;20105;-77
2021/12/27 12:10:04;;;;;;;127.88;38.15;;;;;;;;;;5110431;28;20050;-79
2021/12/27 12:12:31;;;;;;;115.80;34.42;;;;;;;;;;5112921;28;20047;-77
2021/12/27 12:14:58;;;;;;;116.65;35.25;;;;;;;;;;5113824;28;20047;-80
2021/12/27 12:17:36;;;;;;;131.05;36.75;;;;;;;;;;5112656;28;20127;-78
2021/12/27 12:20:03;;;;;;;148.30;36.88;;;;;;;;;;5113537;28;20399;-75
2021/12/27 12:22:44;;;;;;;131.15;37.03;;;2.70;99.90;;;;;;5095909;28;20102;-74
2021/12/27 12:25:19;;;;;;;138.68;36.83;;;3.00;99.90;;;;;;5113704;28;20468;-73
2021/12/27 12:27:52;;;;;;;144.02;36.95;;;2.80;99.90;;;;;;5113061;28;20094;-73
2021/12/27 12:30:18;;;;;;;126.28;35.40;;;3.10;99.90;;;;;;5113530;28;20088;-73
2021/12/27 12:33:06;;;;;;;159.23;39.03;;;3.00;99.90;;;;;;5113974;28;20039;-73
2021/12/27 12:35:43;;;;;;;132.73;36.83;;;3.00;99.90;;;;;;5114116;28;20088;-73
2021/12/27 12:38:23;;;;;;;171.68;38.08;;;2.90;99.90;;;;;;5113604;28;20050;-73
2021/12/27 12:41:06;;;;;;;167.10;39.30;;;3.10;99.90;;;;;;5112576;28;20620;-73